sensor_id;sensor_type;location;lat;lon;timestamp;temperature;humidity
3912;DHT22;1971;51.778;10.330;2022-11-20T11:32:13;0.60;1.00
3912;DHT22;1971;51.778;10.330;2022-11-20T11:34:43;0.80;1.00
3912;DHT22;1971;51.778;10.330;2022-11-20T11:37:17;0.60;1.00
3912;DHT22;1971;51.778;10.330;2022-11-20T11:39:49;0.20;1.00
3912;DHT22;1971;51.778;10.330;2022-11-20T11:42:42;-0.30;1.00
3912;DHT22;1971;51.778;10.330;2022-11-20T11:45:14;-0.30;1.00
3912;DHT22;1971;51.778;10.330;2022-11-20T11:47:47;-0.40;1.00
3912;DHT22;1971;51.778;10.330;2022-11-20T11:50:21;-0.20;1.00
3912;DHT22;1971;51.778;10.330;2022-11-20T11:52:57;-0.60;1.00
3912;DHT22;1971;51.778;10.330;2022-11-20T11:55:33;0.10;1.00
3912;DHT22;1971;51.778;10.330;2022-11-20T11:58:11;-0.50;1.00
3912;DHT22;1971;51.778;10.330;2022-11-20T12:00:50;0.00;1.00
3912;DHT22;1971;51.778;10.330;2022-11-20T12:03:27;-0.10;1.00
3912;DHT22;1971;51.778;10.330;2022-11-20T12:06:01;-0.10;1.00
3912;DHT22;1971;51.778;10.330;2022-11-20T12:08:41;0.10;1.00
3912;DHT22;1971;51.778;10.330;2022-11-20T12:11:18;-0.50;1.00
3912;DHT22;1971;51.778;10.330;2022-11-20T12:13:53;-0.20;1.00
3912;DHT22;1971;51.778;10.330;2022-11-20T12:16:30;-0.30;1.00
3912;DHT22;1971;51.778;10.330;2022-11-20T12:19:09;-0.20;1.00
3912;DHT22;1971;51.778;10.330;2022-11-20T12:21:54;-0.30;1.00
3912;DHT22;1971;51.778;10.330;2022-11-20T12:24:50;0.00;1.00
3912;DHT22;1971;51.778;10.330;2022-11-20T12:27:42;0.30;1.00
3912;DHT22;1971;51.778;10.330;2022-11-20T12:30:16;0.50;1.00
3912;DHT22;1971;51.778;10.330;2022-11-20T12:33:01;0.30;1.00
3912;DHT22;1971;51.778;10.330;2022-11-20T12:38:55;0.60;1.00
3912;DHT22;1971;51.778;10.330;2022-11-20T12:44:44;0.80;1.00
3912;DHT22;1971;51.778;10.330;2022-11-20T12:47:35;0.80;1.00
3912;DHT22;1971;51.778;10.330;2022-11-20T12:50:14;0.60;1.00
3912;DHT22;1971;51.778;10.330;2022-11-20T12:52:49;0.50;1.00
3912;DHT22;1971;51.778;10.330;2022-11-20T12:55:42;0.60;1.00
3912;DHT22;1971;51.778;10.330;2022-11-20T12:58:20;0.60;1.00
3912;DHT22;1971;51.778;10.330;2022-11-20T13:01:00;0.80;1.00
3912;DHT22;1971;51.778;10.330;2022-11-20T13:03:39;0.80;1.00
3912;DHT22;1971;51.778;10.330;2022-11-20T13:06:16;0.60;1.00
3912;DHT22;1971;51.778;10.330;2022-11-20T13:08:52;0.00;1.00
3912;DHT22;1971;51.778;10.330;2022-11-20T13:11:32;0.10;1.00
3912;DHT22;1971;51.778;10.330;2022-11-20T13:14:11;0.00;1.00
3912;DHT22;1971;51.778;10.330;2022-11-20T13:16:48;0.10;1.00
3912;DHT22;1971;51.778;10.330;2022-11-20T13:19:19;0.30;1.00
3912;DHT22;1971;51.778;10.330;2022-11-20T13:21:50;0.30;1.00
3912;DHT22;1971;51.778;10.330;2022-11-20T13:24:23;0.30;1.00
3912;DHT22;1971;51.778;10.330;2022-11-20T13:27:17;0.30;1.00
3912;DHT22;1971;51.778;10.330;2022-11-20T13:30:12;-0.50;1.00
3912;DHT22;1971;51.778;10.330;2022-11-20T13:32:55;-0.50;1.00
3912;DHT22;1971;51.778;10.330;2022-11-20T13:35:30;-0.30;1.00
3912;DHT22;1971;51.778;10.330;2022-11-20T13:38:03;-0.50;1.00
3912;DHT22;1971;51.778;10.330;2022-11-20T13:40:35;-0.30;1.00
3912;DHT22;1971;51.778;10.330;2022-11-20T13:43:15;-0.10;1.00
3912;DHT22;1971;51.778;10.330;2022-11-20T13:45:55;-0.20;1.00
3912;DHT22;1971;51.778;10.330;2022-11-20T13:48:30;-0.50;1.00
3912;DHT22;1971;51.778;10.330;2022-11-20T13:51:28;-0.40;1.00
3912;DHT22;1971;51.778;10.330;2022-11-20T13:54:14;-0.60;1.00
3912;DHT22;1971;51.778;10.330;2022-11-20T13:56:54;-0.60;1.00
3912;DHT22;1971;51.778;10.330;2022-11-20T13:59:40;-0.60;1.00
3912;DHT22;1971;51.778;10.330;2022-11-20T14:02:15;-0.70;1.00
3912;DHT22;1971;51.778;10.330;2022-11-20T14:04:49;-0.70;1.00
3912;DHT22;1971;51.778;10.330;2022-11-20T14:07:23;-0.50;1.00
3912;DHT22;1971;51.778;10.330;2022-11-20T14:09:57;-0.60;1.00
3912;DHT22;1971;51.778;10.330;2022-11-20T14:12:30;-0.70;1.00
3912;DHT22;1971;51.778;10.330;2022-11-20T14:15:03;-0.70;1.00
3912;DHT22;1971;51.778;10.330;2022-11-20T14:17:35;-1.10;1.00
3912;DHT22;1971;51.778;10.330;2022-11-20T14:20:13;-0.60;1.00
3912;DHT22;1971;51.778;10.330;2022-11-20T14:22:50;-1.00;1.00
3912;DHT22;1971;51.778;10.330;2022-11-20T14:25:22;-1.10;1.00
3912;DHT22;1971;51.778;10.330;2022-11-20T14:27:56;-0.80;1.00
3912;DHT22;1971;51.778;10.330;2022-11-20T14:30:42;-1.30;1.00
3912;DHT22;1971;51.778;10.330;2022-11-20T14:33:14;-1.00;1.00
3912;DHT22;1971;51.778;10.330;2022-11-20T14:35:46;-1.30;1.00
3912;DHT22;1971;51.778;10.330;2022-11-20T14:38:21;-1.50;1.00
3912;DHT22;1971;51.778;10.330;2022-11-20T14:40:52;-1.30;1.00
3912;DHT22;1971;51.778;10.330;2022-11-20T14:43:24;-1.80;1.00
3912;DHT22;1971;51.778;10.330;2022-11-20T14:46:00;-1.70;1.00
3912;DHT22;1971;51.778;10.330;2022-11-20T14:48:33;-1.90;1.00
3912;DHT22;1971;51.778;10.330;2022-11-20T14:51:09;-2.00;1.00
3912;DHT22;1971;51.778;10.330;2022-11-20T14:53:39;-2.20;1.00
3912;DHT22;1971;51.778;10.330;2022-11-20T14:56:09;-2.00;1.00
3912;DHT22;1971;51.778;10.330;2022-11-20T14:58:40;-2.20;1.00
3912;DHT22;1971;51.778;10.330;2022-11-20T15:01:25;-2.20;1.00
3912;DHT22;1971;51.778;10.330;2022-11-20T15:04:01;-2.40;1.00
3912;DHT22;1971;51.778;10.330;2022-11-20T15:06:32;-2.40;1.00
3912;DHT22;1971;51.778;10.330;2022-11-20T15:09:13;-2.30;1.00
3912;DHT22;1971;51.778;10.330;2022-11-20T15:11:53;-2.10;1.00
3912;DHT22;1971;51.778;10.330;2022-11-20T15:14:25;-2.20;1.00
3912;DHT22;1971;51.778;10.330;2022-11-20T15:16:59;-2.40;1.00
3912;DHT22;1971;51.778;10.330;2022-11-20T15:19:29;-2.40;1.00
3912;DHT22;1971;51.778;10.330;2022-11-20T15:22:01;-2.60;1.00
3912;DHT22;1971;51.778;10.330;2022-11-20T15:24:34;-2.70;1.00
3912;DHT22;1971;51.778;10.330;2022-11-20T15:27:04;-2.50;1.00
3912;DHT22;1971;51.778;10.330;2022-11-20T15:29:35;-2.40;1.00
3912;DHT22;1971;51.778;10.330;2022-11-20T15:32:08;-2.60;1.00
3912;DHT22;1971;51.778;10.330;2022-11-20T15:34:40;-2.60;1.00
3912;DHT22;1971;51.778;10.330;2022-11-20T15:37:10;-2.90;1.00
3912;DHT22;1971;51.778;10.330;2022-11-20T15:39:40;-3.00;1.00
3912;DHT22;1971;51.778;10.330;2022-11-20T15:42:10;-3.30;1.00
3912;DHT22;1971;51.778;10.330;2022-11-20T15:44:40;-3.40;1.00
3912;DHT22;1971;51.778;10.330;2022-11-20T15:47:13;-3.20;1.00
3912;DHT22;1971;51.778;10.330;2022-11-20T15:49:44;-3.40;1.00
3912;DHT22;1971;51.778;10.330;2022-11-20T15:52:19;-3.30;1.00
3912;DHT22;1971;51.778;10.330;2022-11-20T15:54:49;-3.40;1.00
3912;DHT22;1971;51.778;10.330;2022-11-20T15:57:19;-3.70;1.00
3912;DHT22;1971;51.778;10.330;2022-11-20T15:59:52;-3.50;1.00
3912;DHT22;1971;51.778;10.330;2022-11-20T16:02:28;-3.60;1.00
3912;DHT22;1971;51.778;10.330;2022-11-20T16:04:58;-3.60;1.00
3912;DHT22;1971;51.778;10.330;2022-11-20T16:07:29;-3.60;1.00
3912;DHT22;1971;51.778;10.330;2022-11-20T16:09:59;-4.10;1.00
3912;DHT22;1971;51.778;10.330;2022-11-20T16:12:30;-4.00;1.00
3912;DHT22;1971;51.778;10.330;2022-11-20T16:15:12;-4.20;1.00
3912;DHT22;1971;51.778;10.330;2022-11-20T16:17:57;-4.20;1.00
3912;DHT22;1971;51.778;10.330;2022-11-20T16:20:28;-4.10;1.00
3912;DHT22;1971;51.778;10.330;2022-11-20T16:22:58;-4.30;1.00
3912;DHT22;1971;51.778;10.330;2022-11-20T16:25:28;-4.60;1.00
3912;DHT22;1971;51.778;10.330;2022-11-20T16:28:00;-4.40;1.00
3912;DHT22;1971;51.778;10.330;2022-11-20T16:30:31;-4.50;1.00
3912;DHT22;1971;51.778;10.330;2022-11-20T16:33:08;-4.30;1.00
3912;DHT22;1971;51.778;10.330;2022-11-20T16:35:40;-4.20;1.00
3912;DHT22;1971;51.778;10.330;2022-11-20T16:38:11;-4.40;1.00
3912;DHT22;1971;51.778;10.330;2022-11-20T16:40:41;-3.90;1.00
3912;DHT22;1971;51.778;10.330;2022-11-20T16:43:13;-3.80;1.00
3912;DHT22;1971;51.778;10.330;2022-11-20T16:45:44;-3.60;1.00
3912;DHT22;1971;51.778;10.330;2022-11-20T16:48:18;-3.80;1.00
3912;DHT22;1971;51.778;10.330;2022-11-20T16:50:49;-4.00;1.00
3912;DHT22;1971;51.778;10.330;2022-11-20T16:53:21;-4.10;1.00
3912;DHT22;1971;51.778;10.330;2022-11-20T16:55:51;-3.70;1.00
3912;DHT22;1971;51.778;10.330;2022-11-20T16:58:22;-3.70;1.00
3912;DHT22;1971;51.778;10.330;2022-11-20T17:00:53;-3.80;1.00
3912;DHT22;1971;51.778;10.330;2022-11-20T17:03:26;-3.40;1.00
3912;DHT22;1971;51.778;10.330;2022-11-20T17:05:56;-3.30;1.00
3912;DHT22;1971;51.778;10.330;2022-11-20T17:08:27;-3.20;1.00
3912;DHT22;1971;51.778;10.330;2022-11-20T17:11:04;-3.20;1.00
3912;DHT22;1971;51.778;10.330;2022-11-20T17:13:35;-3.20;1.00
3912;DHT22;1971;51.778;10.330;2022-11-20T17:16:07;-3.10;1.00
3912;DHT22;1971;51.778;10.330;2022-11-20T17:18:41;-2.90;1.00
3912;DHT22;1971;51.778;10.330;2022-11-20T17:21:11;-2.90;1.00
3912;DHT22;1971;51.778;10.330;2022-11-20T17:23:43;-2.50;1.00
3912;DHT22;1971;51.778;10.330;2022-11-20T17:26:14;-2.40;1.00
3912;DHT22;1971;51.778;10.330;2022-11-20T17:28:46;-2.80;1.00
3912;DHT22;1971;51.778;10.330;2022-11-20T17:31:23;-2.50;1.00
3912;DHT22;1971;51.778;10.330;2022-11-20T17:33:58;-2.50;1.00
3912;DHT22;1971;51.778;10.330;2022-11-20T17:36:34;-2.50;1.00
3912;DHT22;1971;51.778;10.330;2022-11-20T17:39:11;-2.50;1.00
3912;DHT22;1971;51.778;10.330;2022-11-20T17:41:41;-2.50;1.00
3912;DHT22;1971;51.778;10.330;2022-11-20T17:44:12;-2.50;1.00
3912;DHT22;1971;51.778;10.330;2022-11-20T17:46:42;-2.50;1.00
3912;DHT22;1971;51.778;10.330;2022-11-20T17:49:15;-2.30;1.00
3912;DHT22;1971;51.778;10.330;2022-11-20T17:51:51;-2.50;1.00
3912;DHT22;1971;51.778;10.330;2022-11-20T17:54:21;-2.30;1.00
3912;DHT22;1971;51.778;10.330;2022-11-20T17:56:52;-2.30;1.00
3912;DHT22;1971;51.778;10.330;2022-11-20T17:59:37;-2.20;1.00
3912;DHT22;1971;51.778;10.330;2022-11-20T18:02:08;-2.00;1.00
3912;DHT22;1971;51.778;10.330;2022-11-20T18:04:42;-2.10;1.00
3912;DHT22;1971;51.778;10.330;2022-11-20T18:07:12;-2.00;1.00
3912;DHT22;1971;51.778;10.330;2022-11-20T18:09:46;-2.00;1.00
3912;DHT22;1971;51.778;10.330;2022-11-20T18:12:16;-2.00;1.00
3912;DHT22;1971;51.778;10.330;2022-11-20T18:14:48;-2.00;1.00
3912;DHT22;1971;51.778;10.330;2022-11-20T18:17:21;-1.90;1.00
3912;DHT22;1971;51.778;10.330;2022-11-20T18:19:55;-2.00;1.00
3912;DHT22;1971;51.778;10.330;2022-11-20T18:22:46;-1.80;1.00
3912;DHT22;1971;51.778;10.330;2022-11-20T18:25:17;-1.90;1.00
3912;DHT22;1971;51.778;10.330;2022-11-20T18:27:47;-2.00;1.00
3912;DHT22;1971;51.778;10.330;2022-11-20T18:30:18;-1.90;1.00
3912;DHT22;1971;51.778;10.330;2022-11-20T18:32:48;-1.70;1.00
3912;DHT22;1971;51.778;10.330;2022-11-20T18:35:21;-1.80;1.00
3912;DHT22;1971;51.778;10.330;2022-11-20T18:37:51;-1.70;1.00
3912;DHT22;1971;51.778;10.330;2022-11-20T18:40:21;-1.80;1.00
3912;DHT22;1971;51.778;10.330;2022-11-20T18:42:51;-1.70;1.00
3912;DHT22;1971;51.778;10.330;2022-11-20T18:45:43;-1.70;1.00
3912;DHT22;1971;51.778;10.330;2022-11-20T18:48:14;-1.70;1.00
3912;DHT22;1971;51.778;10.330;2022-11-20T18:50:52;-1.80;1.00
3912;DHT22;1971;51.778;10.330;2022-11-20T18:53:23;-1.70;1.00
3912;DHT22;1971;51.778;10.330;2022-11-20T18:55:53;-1.70;1.00
3912;DHT22;1971;51.778;10.330;2022-11-20T18:58:23;-1.70;1.00
3912;DHT22;1971;51.778;10.330;2022-11-20T19:00:56;-1.70;1.00
3912;DHT22;1971;51.778;10.330;2022-11-20T19:03:32;-1.70;1.00
3912;DHT22;1971;51.778;10.330;2022-11-20T19:06:11;-1.60;1.00
3912;DHT22;1971;51.778;10.330;2022-11-20T19:08:43;-1.50;1.00
3912;DHT22;1971;51.778;10.330;2022-11-20T19:11:15;-1.60;1.00
3912;DHT22;1971;51.778;10.330;2022-11-20T19:13:50;-1.50;1.00
3912;DHT22;1971;51.778;10.330;2022-11-20T19:16:22;-1.10;1.00
3912;DHT22;1971;51.778;10.330;2022-11-20T19:18:52;-1.40;1.00
3912;DHT22;1971;51.778;10.330;2022-11-20T19:21:26;-1.30;1.00
3912;DHT22;1971;51.778;10.330;2022-11-20T19:24:01;-1.30;1.00
3912;DHT22;1971;51.778;10.330;2022-11-20T19:26:34;-1.40;1.00
3912;DHT22;1971;51.778;10.330;2022-11-20T19:29:05;-1.30;1.00
3912;DHT22;1971;51.778;10.330;2022-11-20T19:31:37;-1.10;1.00
3912;DHT22;1971;51.778;10.330;2022-11-20T19:34:09;-0.80;1.00
3912;DHT22;1971;51.778;10.330;2022-11-20T19:36:42;-0.90;1.00
3912;DHT22;1971;51.778;10.330;2022-11-20T19:39:12;-1.10;1.00
3912;DHT22;1971;51.778;10.330;2022-11-20T19:41:46;-1.10;1.00
3912;DHT22;1971;51.778;10.330;2022-11-20T19:44:17;-1.30;1.00
3912;DHT22;1971;51.778;10.330;2022-11-20T19:46:47;-0.90;1.00
3912;DHT22;1971;51.778;10.330;2022-11-20T19:49:18;-1.30;1.00
3912;DHT22;1971;51.778;10.330;2022-11-20T19:51:52;-0.90;1.00
3912;DHT22;1971;51.778;10.330;2022-11-20T19:54:22;-1.30;1.00
3912;DHT22;1971;51.778;10.330;2022-11-20T19:56:53;-0.90;1.00
3912;DHT22;1971;51.778;10.330;2022-11-20T19:59:23;-1.10;1.00
3912;DHT22;1971;51.778;10.330;2022-11-20T20:01:53;-1.00;1.00
3912;DHT22;1971;51.778;10.330;2022-11-20T20:04:24;-1.30;1.00
3912;DHT22;1971;51.778;10.330;2022-11-20T20:06:59;-1.10;1.00
3912;DHT22;1971;51.778;10.330;2022-11-20T20:09:32;-1.40;1.00
3912;DHT22;1971;51.778;10.330;2022-11-20T20:12:03;-1.30;1.00
3912;DHT22;1971;51.778;10.330;2022-11-20T20:14:34;-1.60;1.00
3912;DHT22;1971;51.778;10.330;2022-11-20T20:17:04;-1.50;1.00
3912;DHT22;1971;51.778;10.330;2022-11-20T20:19:34;-1.20;1.00
3912;DHT22;1971;51.778;10.330;2022-11-20T20:22:08;-1.50;1.00
3912;DHT22;1971;51.778;10.330;2022-11-20T20:24:38;-1.30;1.00
3912;DHT22;1971;51.778;10.330;2022-11-20T20:27:12;-1.50;1.00
3912;DHT22;1971;51.778;10.330;2022-11-20T20:29:42;-1.40;1.00
3912;DHT22;1971;51.778;10.330;2022-11-20T20:32:12;-1.70;1.00
3912;DHT22;1971;51.778;10.330;2022-11-20T20:34:44;-1.50;1.00
3912;DHT22;1971;51.778;10.330;2022-11-20T20:37:18;-1.60;1.00
3912;DHT22;1971;51.778;10.330;2022-11-20T20:39:48;-1.70;1.00
3912;DHT22;1971;51.778;10.330;2022-11-20T20:42:19;-1.50;1.00
3912;DHT22;1971;51.778;10.330;2022-11-20T20:44:51;-1.60;1.00
3912;DHT22;1971;51.778;10.330;2022-11-20T20:47:38;-1.60;1.00
3912;DHT22;1971;51.778;10.330;2022-11-20T20:50:11;-1.80;1.00
3912;DHT22;1971;51.778;10.330;2022-11-20T20:52:46;-1.40;1.00
3912;DHT22;1971;51.778;10.330;2022-11-20T20:55:18;-1.70;1.00
3912;DHT22;1971;51.778;10.330;2022-11-20T20:57:48;-1.40;1.00
3912;DHT22;1971;51.778;10.330;2022-11-20T21:00:21;-1.70;1.00
3912;DHT22;1971;51.778;10.330;2022-11-20T21:02:51;-1.70;1.00
3912;DHT22;1971;51.778;10.330;2022-11-20T21:05:22;-1.90;1.00
3912;DHT22;1971;51.778;10.330;2022-11-20T21:07:58;-1.50;1.00
3912;DHT22;1971;51.778;10.330;2022-11-20T21:10:42;-1.50;1.00
3912;DHT22;1971;51.778;10.330;2022-11-20T21:13:12;-1.40;1.00
3912;DHT22;1971;51.778;10.330;2022-11-20T21:15:45;-1.40;1.00
3912;DHT22;1971;51.778;10.330;2022-11-20T21:18:17;-1.70;1.00
3912;DHT22;1971;51.778;10.330;2022-11-20T21:20:48;-1.40;1.00
3912;DHT22;1971;51.778;10.330;2022-11-20T21:23:34;-1.60;1.00
3912;DHT22;1971;51.778;10.330;2022-11-20T21:26:07;-1.70;1.00
3912;DHT22;1971;51.778;10.330;2022-11-20T21:28:38;-1.50;1.10
3912;DHT22;1971;51.778;10.330;2022-11-20T21:31:13;-1.70;12.10
3912;DHT22;1971;51.778;10.330;2022-11-20T21:33:48;-1.70;19.40
3912;DHT22;1971;51.778;10.330;2022-11-20T21:36:20;-1.60;27.90
3912;DHT22;1971;51.778;10.330;2022-11-20T21:38:57;-1.80;43.10
3912;DHT22;1971;51.778;10.330;2022-11-20T21:41:29;-1.40;57.10
3912;DHT22;1971;51.778;10.330;2022-11-20T21:44:00;-1.20;60.10
3912;DHT22;1971;51.778;10.330;2022-11-20T21:46:52;-1.50;68.00
3912;DHT22;1971;51.778;10.330;2022-11-20T21:49:22;-1.50;80.90
3912;DHT22;1971;51.778;10.330;2022-11-20T21:51:52;-1.40;83.40
3912;DHT22;1971;51.778;10.330;2022-11-20T21:54:25;-1.20;71.30
3912;DHT22;1971;51.778;10.330;2022-11-20T21:56:58;-1.50;75.10
3912;DHT22;1971;51.778;10.330;2022-11-20T21:59:29;-1.20;86.00
3912;DHT22;1971;51.778;10.330;2022-11-20T22:01:59;-1.00;88.20
3912;DHT22;1971;51.778;10.330;2022-11-20T22:04:29;-1.50;89.60
3912;DHT22;1971;51.778;10.330;2022-11-20T22:06:59;-1.10;90.50
3912;DHT22;1971;51.778;10.330;2022-11-20T22:09:33;-1.30;89.30
3912;DHT22;1971;51.778;10.330;2022-11-20T22:12:04;-1.30;95.90
3912;DHT22;1971;51.778;10.330;2022-11-20T22:14:34;-1.40;99.50
3912;DHT22;1971;51.778;10.330;2022-11-20T22:17:02;-1.10;99.90
3912;DHT22;1971;51.778;10.330;2022-11-20T22:19:33;-1.50;98.40
3912;DHT22;1971;51.778;10.330;2022-11-20T22:22:03;-1.50;99.90
3912;DHT22;1971;51.778;10.330;2022-11-20T22:24:37;-1.40;99.90
3912;DHT22;1971;51.778;10.330;2022-11-20T22:27:09;-1.20;99.90
3912;DHT22;1971;51.778;10.330;2022-11-20T22:29:39;-1.50;99.90
3912;DHT22;1971;51.778;10.330;2022-11-20T22:32:10;-1.40;99.90
3912;DHT22;1971;51.778;10.330;2022-11-20T22:34:40;-1.50;99.90
3912;DHT22;1971;51.778;10.330;2022-11-20T22:37:11;-1.50;99.90
3912;DHT22;1971;51.778;10.330;2022-11-20T22:39:44;-1.40;99.90
3912;DHT22;1971;51.778;10.330;2022-11-20T22:42:15;-1.10;99.90
3912;DHT22;1971;51.778;10.330;2022-11-20T22:44:46;-1.30;99.90
3912;DHT22;1971;51.778;10.330;2022-11-20T22:47:16;-0.90;99.90
3912;DHT22;1971;51.778;10.330;2022-11-20T22:49:46;-1.10;99.90
3912;DHT22;1971;51.778;10.330;2022-11-20T22:52:18;-0.90;99.90
3912;DHT22;1971;51.778;10.330;2022-11-20T22:54:51;-1.10;99.90
3912;DHT22;1971;51.778;10.330;2022-11-20T22:57:22;-1.20;99.90
3912;DHT22;1971;51.778;10.330;2022-11-20T22:59:52;-1.10;99.90
3912;DHT22;1971;51.778;10.330;2022-11-20T23:02:22;-1.10;99.90
3912;DHT22;1971;51.778;10.330;2022-11-20T23:04:53;-1.10;99.90
3912;DHT22;1971;51.778;10.330;2022-11-20T23:07:23;-1.00;99.90
3912;DHT22;1971;51.778;10.330;2022-11-20T23:09:57;-0.80;99.90
3912;DHT22;1971;51.778;10.330;2022-11-20T23:12:27;-1.00;99.90
3912;DHT22;1971;51.778;10.330;2022-11-20T23:14:57;-0.80;99.90
3912;DHT22;1971;51.778;10.330;2022-11-20T23:17:28;-0.90;99.90
3912;DHT22;1971;51.778;10.330;2022-11-20T23:20:01;-1.10;99.90
3912;DHT22;1971;51.778;10.330;2022-11-20T23:22:31;-0.70;99.90
3912;DHT22;1971;51.778;10.330;2022-11-20T23:25:05;-0.90;99.90
3912;DHT22;1971;51.778;10.330;2022-11-20T23:27:36;-0.70;99.90
3912;DHT22;1971;51.778;10.330;2022-11-20T23:30:08;-0.90;99.90
3912;DHT22;1971;51.778;10.330;2022-11-20T23:32:38;-1.20;99.90
3912;DHT22;1971;51.778;10.330;2022-11-20T23:35:09;-1.10;99.90
3912;DHT22;1971;51.778;10.330;2022-11-20T23:37:43;-1.20;99.90
3912;DHT22;1971;51.778;10.330;2022-11-20T23:40:18;-1.20;99.90
3912;DHT22;1971;51.778;10.330;2022-11-20T23:42:48;-0.90;99.90
3912;DHT22;1971;51.778;10.330;2022-11-20T23:45:42;-1.00;99.90
3912;DHT22;1971;51.778;10.330;2022-11-20T23:48:15;-0.80;99.90
3912;DHT22;1971;51.778;10.330;2022-11-20T23:50:45;-0.70;99.90
3912;DHT22;1971;51.778;10.330;2022-11-20T23:53:17;-0.90;99.90
3912;DHT22;1971;51.778;10.330;2022-11-20T23:55:53;-0.90;99.90
3912;DHT22;1971;51.778;10.330;2022-11-20T23:58:25;-1.00;99.90
